sensor_id;sensor_type;location;lat;lon;timestamp;pressure;altitude;pressure_sealevel;temperature;humidity
26823;BME280;14852;51.910;8.878;2023-08-06T00:00:28;98850.84;;;17.92;63.32
26823;BME280;14852;51.910;8.878;2023-08-06T00:02:57;98857.63;;;17.95;63.31
26823;BME280;14852;51.910;8.878;2023-08-06T00:05:22;98854.47;;;17.91;63.05
26823;BME280;14852;51.910;8.878;2023-08-06T00:07:51;98857.91;;;17.92;63.23
26823;BME280;14852;51.910;8.878;2023-08-06T00:10:17;98851.97;;;17.90;63.54
26823;BME280;14852;51.910;8.878;2023-08-06T00:12:46;98849.66;;;17.87;63.37
26823;BME280;14852;51.910;8.878;2023-08-06T00:15:12;98839.72;;;17.81;63.66
26823;BME280;14852;51.910;8.878;2023-08-06T00:17:38;98845.81;;;17.81;63.82
26823;BME280;14852;51.910;8.878;2023-08-06T00:20:05;98841.25;;;17.83;63.75
26823;BME280;14852;51.910;8.878;2023-08-06T00:22:38;98842.63;;;17.87;63.63
26823;BME280;14852;51.910;8.878;2023-08-06T00:25:05;98847.19;;;17.85;63.76
26823;BME280;14852;51.910;8.878;2023-08-06T00:27:31;98839.72;;;17.81;63.76
26823;BME280;14852;51.910;8.878;2023-08-06T00:29:58;98839.59;;;17.82;63.96
26823;BME280;14852;51.910;8.878;2023-08-06T00:32:24;98839.72;;;17.81;63.76
26823;BME280;14852;51.910;8.878;2023-08-06T00:34:50;98842.38;;;17.81;64.19
26823;BME280;14852;51.910;8.878;2023-08-06T00:37:17;98838.91;;;17.80;64.05
26823;BME280;14852;51.910;8.878;2023-08-06T00:39:43;98838.06;;;17.80;64.21
26823;BME280;14852;51.910;8.878;2023-08-06T00:42:11;98835.44;;;17.80;64.21
26823;BME280;14852;51.910;8.878;2023-08-06T00:44:37;98830.19;;;17.80;64.06
26823;BME280;14852;51.910;8.878;2023-08-06T00:47:04;98840.69;;;17.80;64.05
26823;BME280;14852;51.910;8.878;2023-08-06T00:49:30;98834.19;;;17.84;64.22
26823;BME280;14852;51.910;8.878;2023-08-06T00:51:57;98829.97;;;17.91;64.01
26823;BME280;14852;51.910;8.878;2023-08-06T00:54:23;98828.03;;;17.93;64.10
26823;BME280;14852;51.910;8.878;2023-08-06T00:56:50;98824.28;;;17.95;63.87
26823;BME280;14852;51.910;8.878;2023-08-06T00:59:16;98830.91;;;17.99;63.78
26823;BME280;14852;51.910;8.878;2023-08-06T01:01:42;98823.81;;;18.00;64.25
26823;BME280;14852;51.910;8.878;2023-08-06T01:04:08;98822.03;;;18.00;63.80
26823;BME280;14852;51.910;8.878;2023-08-06T01:06:47;98811.34;;;18.02;64.02
26823;BME280;14852;51.910;8.878;2023-08-06T01:12:51;98791.47;;;17.99;64.13
26823;BME280;14852;51.910;8.878;2023-08-06T01:15:29;98792.75;;;17.95;64.21
26823;BME280;14852;51.910;8.878;2023-08-06T01:17:55;98787.63;;;17.94;64.41
26823;BME280;14852;51.910;8.878;2023-08-06T01:20:21;98788.47;;;17.94;64.29
26823;BME280;14852;51.910;8.878;2023-08-06T01:22:47;98786.38;;;17.98;64.37
26823;BME280;14852;51.910;8.878;2023-08-06T01:25:15;98783.06;;;17.96;64.18
26823;BME280;14852;51.910;8.878;2023-08-06T01:27:49;98778.16;;;18.01;64.46
26823;BME280;14852;51.910;8.878;2023-08-06T01:30:30;98768.19;;;18.04;64.23
26823;BME280;14852;51.910;8.878;2023-08-06T01:33:04;98765.56;;;18.04;64.39
26823;BME280;14852;51.910;8.878;2023-08-06T01:35:32;98765.69;;;18.03;64.56
26823;BME280;14852;51.910;8.878;2023-08-06T01:38:01;98767.50;;;18.02;64.09
26823;BME280;14852;51.910;8.878;2023-08-06T01:40:27;98757.66;;;18.04;64.07
26823;BME280;14852;51.910;8.878;2023-08-06T01:42:54;98757.66;;;18.04;64.26
26823;BME280;14852;51.910;8.878;2023-08-06T01:45:19;98748.59;;;17.99;64.30
26823;BME280;14852;51.910;8.878;2023-08-06T01:47:45;98751.81;;;17.93;64.33
26823;BME280;14852;51.910;8.878;2023-08-06T01:50:11;98759.34;;;17.88;64.46
26823;BME280;14852;51.910;8.878;2023-08-06T01:52:37;98757.97;;;17.84;64.58
26823;BME280;14852;51.910;8.878;2023-08-06T01:55:03;98756.63;;;17.80;64.76
26823;BME280;14852;51.910;8.878;2023-08-06T01:57:29;98762.19;;;17.77;64.68
26823;BME280;14852;51.910;8.878;2023-08-06T01:59:55;98757.25;;;17.73;65.06
26823;BME280;14852;51.910;8.878;2023-08-06T02:02:20;98751.31;;;17.71;65.09
26823;BME280;14852;51.910;8.878;2023-08-06T02:04:46;98747.03;;;17.70;65.10
26823;BME280;14852;51.910;8.878;2023-08-06T02:07:12;98744.53;;;17.69;64.82
26823;BME280;14852;51.910;8.878;2023-08-06T02:09:38;98748.28;;;17.66;64.73
26823;BME280;14852;51.910;8.878;2023-08-06T02:12:04;98742.63;;;17.61;65.03
26823;BME280;14852;51.910;8.878;2023-08-06T02:14:30;98746.66;;;17.56;65.21
26823;BME280;14852;51.910;8.878;2023-08-06T02:16:56;98743.69;;;17.51;65.07
26823;BME280;14852;51.910;8.878;2023-08-06T02:19:25;98742.31;;;17.47;65.49
26823;BME280;14852;51.910;8.878;2023-08-06T02:21:50;98744.41;;;17.43;65.30
26823;BME280;14852;51.910;8.878;2023-08-06T02:24:16;98749.28;;;17.38;65.51
26823;BME280;14852;51.910;8.878;2023-08-06T02:26:42;98736.44;;;17.35;65.74
26823;BME280;14852;51.910;8.878;2023-08-06T02:29:08;98735.09;;;17.31;65.64
26823;BME280;14852;51.910;8.878;2023-08-06T02:31:34;98725.31;;;17.23;65.46
26823;BME280;14852;51.910;8.878;2023-08-06T02:34:00;98728.41;;;17.19;65.94
26823;BME280;14852;51.910;8.878;2023-08-06T02:36:26;98723.59;;;17.14;65.76
26823;BME280;14852;51.910;8.878;2023-08-06T02:38:55;98724.69;;;17.12;65.35
26823;BME280;14852;51.910;8.878;2023-08-06T02:41:22;98724.00;;;17.10;65.88
26823;BME280;14852;51.910;8.878;2023-08-06T02:43:47;98721.38;;;17.10;65.64
26823;BME280;14852;51.910;8.878;2023-08-06T02:46:13;98717.13;;;17.09;65.77
26823;BME280;14852;51.910;8.878;2023-08-06T02:48:39;98710.22;;;17.08;65.65
26823;BME280;14852;51.910;8.878;2023-08-06T02:51:05;98707.44;;;17.09;65.52
26823;BME280;14852;51.910;8.878;2023-08-06T02:53:32;98711.22;;;17.07;65.68
26823;BME280;14852;51.910;8.878;2023-08-06T02:56:00;98708.59;;;17.07;65.77
26823;BME280;14852;51.910;8.878;2023-08-06T02:58:35;98703.34;;;17.07;65.64
26823;BME280;14852;51.910;8.878;2023-08-06T03:01:13;98697.41;;;17.05;65.65
26823;BME280;14852;51.910;8.878;2023-08-06T03:03:46;98688.00;;;17.02;65.91
26823;BME280;14852;51.910;8.878;2023-08-06T03:06:18;98686.22;;;17.02;65.90
26823;BME280;14852;51.910;8.878;2023-08-06T03:08:48;98683.44;;;17.04;65.55
26823;BME280;14852;51.910;8.878;2023-08-06T03:11:14;98679.84;;;17.05;65.53
26823;BME280;14852;51.910;8.878;2023-08-06T03:13:40;98682.34;;;17.07;65.90
26823;BME280;14852;51.910;8.878;2023-08-06T03:16:07;98680.81;;;17.04;65.90
26823;BME280;14852;51.910;8.878;2023-08-06T03:18:33;98672.97;;;17.04;65.48
26823;BME280;14852;51.910;8.878;2023-08-06T03:21:02;98674.91;;;17.02;65.59
26823;BME280;14852;51.910;8.878;2023-08-06T03:23:30;98669.94;;;16.99;65.42
26823;BME280;14852;51.910;8.878;2023-08-06T03:25:56;98666.94;;;16.94;65.58
26823;BME280;14852;51.910;8.878;2023-08-06T03:28:22;98664.75;;;16.89;65.88
26823;BME280;14852;51.910;8.878;2023-08-06T03:30:58;98663.38;;;16.85;65.69
26823;BME280;14852;51.910;8.878;2023-08-06T03:33:25;98657.06;;;16.78;66.06
26823;BME280;14852;51.910;8.878;2023-08-06T03:35:51;98655.88;;;16.73;66.14
26823;BME280;14852;51.910;8.878;2023-08-06T03:38:18;98655.47;;;16.68;66.05
26823;BME280;14852;51.910;8.878;2023-08-06T03:40:43;98650.75;;;16.61;66.48
26823;BME280;14852;51.910;8.878;2023-08-06T03:43:09;98645.81;;;16.58;66.06
26823;BME280;14852;51.910;8.878;2023-08-06T03:45:36;98644.03;;;16.59;66.21
26823;BME280;14852;51.910;8.878;2023-08-06T03:48:02;98646.66;;;16.59;66.53
26823;BME280;14852;51.910;8.878;2023-08-06T03:50:28;98649.13;;;16.60;65.82
26823;BME280;14852;51.910;8.878;2023-08-06T03:52:53;98646.66;;;16.59;65.94
26823;BME280;14852;51.910;8.878;2023-08-06T03:55:21;98641.56;;;16.57;66.17
26823;BME280;14852;51.910;8.878;2023-08-06T03:57:47;98639.06;;;16.56;66.12
26823;BME280;14852;51.910;8.878;2023-08-06T04:00:13;98636.59;;;16.54;65.81
26823;BME280;14852;51.910;8.878;2023-08-06T04:02:42;98644.59;;;16.53;66.13
26823;BME280;14852;51.910;8.878;2023-08-06T04:05:09;98644.75;;;16.51;65.86
26823;BME280;14852;51.910;8.878;2023-08-06T04:07:35;98650.94;;;16.50;65.73
26823;BME280;14852;51.910;8.878;2023-08-06T04:10:03;98651.63;;;16.52;66.31
26823;BME280;14852;51.910;8.878;2023-08-06T04:12:30;98653.97;;;16.55;66.12
26823;BME280;14852;51.910;8.878;2023-08-06T04:14:58;98639.91;;;16.56;66.12
26823;BME280;14852;51.910;8.878;2023-08-06T04:17:24;98642.25;;;16.59;65.95
26823;BME280;14852;51.910;8.878;2023-08-06T04:19:54;98642.91;;;16.61;66.23
26823;BME280;14852;51.910;8.878;2023-08-06T04:22:21;98650.50;;;16.64;66.33
26823;BME280;14852;51.910;8.878;2023-08-06T04:24:47;98648.56;;;16.67;65.60
26823;BME280;14852;51.910;8.878;2023-08-06T04:27:15;98648.28;;;16.70;66.05
26823;BME280;14852;51.910;8.878;2023-08-06T04:29:42;98644.25;;;16.75;66.27
26823;BME280;14852;51.910;8.878;2023-08-06T04:32:10;98642.16;;;16.79;65.73
26823;BME280;14852;51.910;8.878;2023-08-06T04:34:39;98642.72;;;16.82;65.74
26823;BME280;14852;51.910;8.878;2023-08-06T04:37:05;98636.16;;;16.86;65.66
26823;BME280;14852;51.910;8.878;2023-08-06T04:39:31;98638.50;;;16.89;65.68
26823;BME280;14852;51.910;8.878;2023-08-06T04:41:57;98639.88;;;16.93;66.12
26823;BME280;14852;51.910;8.878;2023-08-06T04:44:26;98642.03;;;16.98;66.11
26823;BME280;14852;51.910;8.878;2023-08-06T04:46:52;98648.66;;;17.02;65.99
26823;BME280;14852;51.910;8.878;2023-08-06T04:49:20;98642.44;;;17.03;65.70
26823;BME280;14852;51.910;8.878;2023-08-06T04:51:46;98656.09;;;17.07;65.85
26823;BME280;14852;51.910;8.878;2023-08-06T04:54:11;98646.09;;;17.10;65.79
26823;BME280;14852;51.910;8.878;2023-08-06T04:56:37;98641.94;;;17.17;65.74
26823;BME280;14852;51.910;8.878;2023-08-06T04:59:03;98641.03;;;17.26;66.17
26823;BME280;14852;51.910;8.878;2023-08-06T05:01:29;98643.72;;;17.34;65.51
26823;BME280;14852;51.910;8.878;2023-08-06T05:03:55;98648.91;;;17.44;65.43
26823;BME280;14852;51.910;8.878;2023-08-06T05:06:21;98641.94;;;17.53;65.42
26823;BME280;14852;51.910;8.878;2023-08-06T05:08:46;98638.53;;;17.60;65.01
26823;BME280;14852;51.910;8.878;2023-08-06T05:11:12;98641.56;;;17.65;65.16
26823;BME280;14852;51.910;8.878;2023-08-06T05:13:38;98640.75;;;17.65;65.37
26823;BME280;14852;51.910;8.878;2023-08-06T05:16:03;98639.22;;;17.62;65.37
26823;BME280;14852;51.910;8.878;2023-08-06T05:18:30;98644.47;;;17.62;65.57
26823;BME280;14852;51.910;8.878;2023-08-06T05:20:56;98644.47;;;17.62;65.53
26823;BME280;14852;51.910;8.878;2023-08-06T05:23:22;98640.06;;;17.63;65.88
26823;BME280;14852;51.910;8.878;2023-08-06T05:25:48;98641.41;;;17.67;65.99
26823;BME280;14852;51.910;8.878;2023-08-06T05:28:14;98648.41;;;17.76;65.66
26823;BME280;14852;51.910;8.878;2023-08-06T05:30:40;98641.69;;;17.82;65.57
26823;BME280;14852;51.910;8.878;2023-08-06T05:33:06;98655.34;;;17.85;65.55
26823;BME280;14852;51.910;8.878;2023-08-06T05:35:32;98652.72;;;17.85;65.78
26823;BME280;14852;51.910;8.878;2023-08-06T05:37:58;98665.38;;;17.90;65.46
26823;BME280;14852;51.910;8.878;2023-08-06T05:40:23;98651.94;;;17.93;65.83
26823;BME280;14852;51.910;8.878;2023-08-06T05:42:53;98650.81;;;17.95;65.68
26823;BME280;14852;51.910;8.878;2023-08-06T05:45:19;98653.97;;;17.99;65.40
26823;BME280;14852;51.910;8.878;2023-08-06T05:47:45;98656.13;;;18.03;65.53
26823;BME280;14852;51.910;8.878;2023-08-06T05:50:11;98652.81;;;18.01;65.99
26823;BME280;14852;51.910;8.878;2023-08-06T05:52:37;98660.84;;;18.00;65.88
26823;BME280;14852;51.910;8.878;2023-08-06T05:55:03;98662.69;;;17.99;65.75
26823;BME280;14852;51.910;8.878;2023-08-06T05:57:28;98659.72;;;18.02;66.13
26823;BME280;14852;51.910;8.878;2023-08-06T05:59:54;98657.19;;;18.11;65.60
26823;BME280;14852;51.910;8.878;2023-08-06T06:02:20;98662.19;;;18.22;65.76
26823;BME280;14852;51.910;8.878;2023-08-06T06:04:46;98652.69;;;18.29;65.33
26823;BME280;14852;51.910;8.878;2023-08-06T06:07:11;98662.09;;;18.39;64.98
26823;BME280;14852;51.910;8.878;2023-08-06T06:09:37;98655.06;;;18.48;64.95
26823;BME280;14852;51.910;8.878;2023-08-06T06:12:05;98659.56;;;18.56;64.83
26823;BME280;14852;51.910;8.878;2023-08-06T06:14:31;98654.16;;;18.57;64.97
26823;BME280;14852;51.910;8.878;2023-08-06T06:16:58;98659.63;;;18.64;64.75
26823;BME280;14852;51.910;8.878;2023-08-06T06:19:25;98655.50;;;18.61;65.15
26823;BME280;14852;51.910;8.878;2023-08-06T06:21:51;98656.63;;;18.59;65.37
26823;BME280;14852;51.910;8.878;2023-08-06T06:24:17;98646.41;;;18.56;65.25
26823;BME280;14852;51.910;8.878;2023-08-06T06:26:43;98649.72;;;18.58;64.93
26823;BME280;14852;51.910;8.878;2023-08-06T06:29:09;98654.00;;;18.59;65.18
26823;BME280;14852;51.910;8.878;2023-08-06T06:31:34;98649.09;;;18.64;64.82
26823;BME280;14852;51.910;8.878;2023-08-06T06:34:00;98640.75;;;18.68;65.24
26823;BME280;14852;51.910;8.878;2023-08-06T06:36:26;98647.16;;;18.74;65.05
26823;BME280;14852;51.910;8.878;2023-08-06T06:38:52;98639.28;;;18.82;64.86
26823;BME280;14852;51.910;8.878;2023-08-06T06:41:18;98629.44;;;18.92;64.63
26823;BME280;14852;51.910;8.878;2023-08-06T06:43:44;98633.63;;;19.03;64.28
26823;BME280;14852;51.910;8.878;2023-08-06T06:46:09;98631.66;;;19.13;64.64
26823;BME280;14852;51.910;8.878;2023-08-06T06:48:35;98632.03;;;19.34;64.15
26823;BME280;14852;51.910;8.878;2023-08-06T06:51:01;98623.81;;;19.70;63.44
26823;BME280;14852;51.910;8.878;2023-08-06T06:53:27;98621.63;;;20.14;62.10
26823;BME280;14852;51.910;8.878;2023-08-06T06:56:03;98617.09;;;20.86;60.82
26823;BME280;14852;51.910;8.878;2023-08-06T06:58:33;98613.28;;;21.42;59.65
26823;BME280;14852;51.910;8.878;2023-08-06T07:00:59;98612.13;;;21.97;58.04
26823;BME280;14852;51.910;8.878;2023-08-06T07:03:25;98616.94;;;23.11;55.80
26823;BME280;14852;51.910;8.878;2023-08-06T07:05:50;98598.72;;;23.93;53.72
26823;BME280;14852;51.910;8.878;2023-08-06T07:08:17;98601.44;;;24.28;53.35
26823;BME280;14852;51.910;8.878;2023-08-06T07:10:43;98595.38;;;24.12;54.39
26823;BME280;14852;51.910;8.878;2023-08-06T07:13:09;98603.59;;;23.90;54.45
26823;BME280;14852;51.910;8.878;2023-08-06T07:15:35;98602.63;;;23.69;55.60
26823;BME280;14852;51.910;8.878;2023-08-06T07:18:01;98598.53;;;23.67;55.61
26823;BME280;14852;51.910;8.878;2023-08-06T07:20:27;98599.38;;;24.02;55.23
26823;BME280;14852;51.910;8.878;2023-08-06T07:22:58;98597.94;;;25.22;51.82
26823;BME280;14852;51.910;8.878;2023-08-06T07:25:24;98587.91;;;26.88;48.40
26823;BME280;14852;51.910;8.878;2023-08-06T07:27:49;98571.81;;;27.64;46.51
26823;BME280;14852;51.910;8.878;2023-08-06T07:30:15;98575.50;;;28.97;43.55
26823;BME280;14852;51.910;8.878;2023-08-06T07:32:41;98569.88;;;30.29;41.66
26823;BME280;14852;51.910;8.878;2023-08-06T07:35:07;98575.38;;;31.30;39.77
26823;BME280;14852;51.910;8.878;2023-08-06T07:37:35;98565.81;;;31.68;38.73
26823;BME280;14852;51.910;8.878;2023-08-06T07:40:00;98556.13;;;32.22;38.51
26823;BME280;14852;51.910;8.878;2023-08-06T07:42:26;98565.22;;;33.35;36.72
26823;BME280;14852;51.910;8.878;2023-08-06T07:44:57;98550.94;;;33.72;35.64
26823;BME280;14852;51.910;8.878;2023-08-06T07:47:23;98561.22;;;34.12;34.88
26823;BME280;14852;51.910;8.878;2023-08-06T07:49:49;98554.59;;;33.88;35.17
26823;BME280;14852;51.910;8.878;2023-08-06T07:52:15;98560.03;;;34.50;35.00
26823;BME280;14852;51.910;8.878;2023-08-06T07:54:41;98556.97;;;35.09;34.55
26823;BME280;14852;51.910;8.878;2023-08-06T07:57:07;98553.47;;;34.93;34.65
26823;BME280;14852;51.910;8.878;2023-08-06T07:59:33;98546.78;;;34.33;35.58
26823;BME280;14852;51.910;8.878;2023-08-06T08:01:59;98549.38;;;34.85;35.02
26823;BME280;14852;51.910;8.878;2023-08-06T08:04:24;98544.06;;;35.87;33.60
26823;BME280;14852;51.910;8.878;2023-08-06T08:06:50;98549.53;;;34.54;35.67
26823;BME280;14852;51.910;8.878;2023-08-06T08:09:16;98556.25;;;32.54;39.14
26823;BME280;14852;51.910;8.878;2023-08-06T08:11:42;98567.72;;;31.39;41.32
26823;BME280;14852;51.910;8.878;2023-08-06T08:14:08;98562.53;;;31.33;41.61
26823;BME280;14852;51.910;8.878;2023-08-06T08:16:34;98558.53;;;32.02;40.37
26823;BME280;14852;51.910;8.878;2023-08-06T08:19:00;98565.22;;;31.33;41.21
26823;BME280;14852;51.910;8.878;2023-08-06T08:21:25;98566.19;;;30.18;42.92
26823;BME280;14852;51.910;8.878;2023-08-06T08:23:52;98565.13;;;29.31;45.00
26823;BME280;14852;51.910;8.878;2023-08-06T08:26:18;98569.56;;;28.84;46.08
26823;BME280;14852;51.910;8.878;2023-08-06T08:28:44;98570.75;;;28.51;46.04
26823;BME280;14852;51.910;8.878;2023-08-06T08:31:11;98568.31;;;28.31;46.45
26823;BME280;14852;51.910;8.878;2023-08-06T08:33:38;98571.28;;;28.23;46.66
26823;BME280;14852;51.910;8.878;2023-08-06T08:36:04;98569.56;;;28.29;46.21
26823;BME280;14852;51.910;8.878;2023-08-06T08:38:29;98573.03;;;28.11;46.06
26823;BME280;14852;51.910;8.878;2023-08-06T08:40:55;98563.81;;;28.07;47.01
26823;BME280;14852;51.910;8.878;2023-08-06T08:43:22;98567.50;;;28.31;46.33
26823;BME280;14852;51.910;8.878;2023-08-06T08:45:52;98560.50;;;28.30;46.45
26823;BME280;14852;51.910;8.878;2023-08-06T08:48:21;98561.81;;;28.02;46.46
26823;BME280;14852;51.910;8.878;2023-08-06T08:50:49;98570.50;;;27.73;46.68
26823;BME280;14852;51.910;8.878;2023-08-06T08:53:16;98570.50;;;27.73;47.32
26823;BME280;14852;51.910;8.878;2023-08-06T08:55:48;98557.56;;;27.95;46.70
26823;BME280;14852;51.910;8.878;2023-08-06T08:58:15;98561.44;;;27.99;46.25
26823;BME280;14852;51.910;8.878;2023-08-06T09:00:42;98559.06;;;28.09;46.22
26823;BME280;14852;51.910;8.878;2023-08-06T09:03:08;98562.47;;;28.16;46.46
26823;BME280;14852;51.910;8.878;2023-08-06T09:05:35;98557.84;;;28.30;46.36
26823;BME280;14852;51.910;8.878;2023-08-06T09:08:04;98560.59;;;28.23;45.96
26823;BME280;14852;51.910;8.878;2023-08-06T09:10:31;98558.69;;;27.87;46.34
26823;BME280;14852;51.910;8.878;2023-08-06T09:12:57;98563.75;;;27.70;46.29
26823;BME280;14852;51.910;8.878;2023-08-06T09:15:27;98561.44;;;27.49;47.00
26823;BME280;14852;51.910;8.878;2023-08-06T09:17:54;98559.66;;;27.43;46.62
26823;BME280;14852;51.910;8.878;2023-08-06T09:20:20;98560.72;;;27.35;46.77
26823;BME280;14852;51.910;8.878;2023-08-06T09:22:46;98565.91;;;27.30;47.39
26823;BME280;14852;51.910;8.878;2023-08-06T09:25:22;98570.13;;;27.13;47.55
26823;BME280;14852;51.910;8.878;2023-08-06T09:27:50;98565.53;;;26.95;47.07
26823;BME280;14852;51.910;8.878;2023-08-06T09:30:31;98576.22;;;26.82;47.74
26823;BME280;14852;51.910;8.878;2023-08-06T09:32:58;98569.16;;;26.63;47.60
26823;BME280;14852;51.910;8.878;2023-08-06T09:35:24;98569.38;;;26.55;48.09
26823;BME280;14852;51.910;8.878;2023-08-06T09:37:50;98566.28;;;26.64;47.71
26823;BME280;14852;51.910;8.878;2023-08-06T09:40:31;98561.94;;;26.70;48.06
26823;BME280;14852;51.910;8.878;2023-08-06T09:43:00;98564.44;;;26.58;47.43
26823;BME280;14852;51.910;8.878;2023-08-06T09:45:37;98576.22;;;26.31;47.98
26823;BME280;14852;51.910;8.878;2023-08-06T09:48:08;98569.47;;;26.09;47.71
26823;BME280;14852;51.910;8.878;2023-08-06T09:50:36;98569.53;;;25.89;48.43
26823;BME280;14852;51.910;8.878;2023-08-06T09:53:05;98571.38;;;25.82;47.83
26823;BME280;14852;51.910;8.878;2023-08-06T09:55:33;98584.91;;;25.80;48.60
26823;BME280;14852;51.910;8.878;2023-08-06T09:58:00;98577.94;;;25.73;48.69
26823;BME280;14852;51.910;8.878;2023-08-06T10:00:26;98574.66;;;25.64;48.73
26823;BME280;14852;51.910;8.878;2023-08-06T10:02:54;98570.56;;;25.61;48.36
26823;BME280;14852;51.910;8.878;2023-08-06T10:05:24;98577.13;;;25.66;48.23
26823;BME280;14852;51.910;8.878;2023-08-06T10:07:50;98575.28;;;25.73;48.10
26823;BME280;14852;51.910;8.878;2023-08-06T10:10:17;98568.13;;;25.80;48.71
26823;BME280;14852;51.910;8.878;2023-08-06T10:12:55;98568.09;;;25.86;48.31
26823;BME280;14852;51.910;8.878;2023-08-06T10:15:26;98565.81;;;25.96;48.28
26823;BME280;14852;51.910;8.878;2023-08-06T10:17:57;98561.91;;;26.12;47.52
26823;BME280;14852;51.910;8.878;2023-08-06T10:20:24;98563.09;;;26.23;47.45
26823;BME280;14852;51.910;8.878;2023-08-06T10:23:16;98567.97;;;26.46;47.27
26823;BME280;14852;51.910;8.878;2023-08-06T10:25:43;98561.63;;;26.53;46.65
26823;BME280;14852;51.910;8.878;2023-08-06T10:28:19;98552.91;;;26.71;46.26
26823;BME280;14852;51.910;8.878;2023-08-06T10:30:46;98558.81;;;26.80;46.02
26823;BME280;14852;51.910;8.878;2023-08-06T10:33:12;98554.84;;;26.95;45.49
26823;BME280;14852;51.910;8.878;2023-08-06T10:35:44;98558.88;;;27.11;45.52
26823;BME280;14852;51.910;8.878;2023-08-06T10:38:21;98547.53;;;27.16;45.38
26823;BME280;14852;51.910;8.878;2023-08-06T10:41:05;98547.16;;;27.12;45.11
26823;BME280;14852;51.910;8.878;2023-08-06T10:43:36;98550.41;;;27.14;45.93
26823;BME280;14852;51.910;8.878;2023-08-06T10:46:10;98541.69;;;27.32;45.82
26823;BME280;14852;51.910;8.878;2023-08-06T10:48:45;98540.31;;;27.48;46.34
26823;BME280;14852;51.910;8.878;2023-08-06T10:51:13;98538.56;;;27.66;45.20
26823;BME280;14852;51.910;8.878;2023-08-06T10:53:48;98533.19;;;27.91;45.50
26823;BME280;14852;51.910;8.878;2023-08-06T10:56:16;98532.75;;;28.13;44.61
26823;BME280;14852;51.910;8.878;2023-08-06T10:58:46;98530.03;;;28.19;44.83
26823;BME280;14852;51.910;8.878;2023-08-06T11:01:13;98530.84;;;28.20;44.44
26823;BME280;14852;51.910;8.878;2023-08-06T11:03:40;98533.19;;;28.28;44.51
26823;BME280;14852;51.910;8.878;2023-08-06T11:06:10;98521.47;;;28.29;43.98
26823;BME280;14852;51.910;8.878;2023-08-06T11:08:47;98516.34;;;28.45;44.41
26823;BME280;14852;51.910;8.878;2023-08-06T11:11:15;98515.72;;;28.62;43.01
26823;BME280;14852;51.910;8.878;2023-08-06T11:13:49;98515.13;;;28.78;43.63
26823;BME280;14852;51.910;8.878;2023-08-06T11:16:18;98514.00;;;28.67;42.65
26823;BME280;14852;51.910;8.878;2023-08-06T11:18:44;98509.59;;;28.43;43.04
26823;BME280;14852;51.910;8.878;2023-08-06T11:21:11;98515.91;;;28.30;43.58
26823;BME280;14852;51.910;8.878;2023-08-06T11:23:38;98503.38;;;28.31;42.99
26823;BME280;14852;51.910;8.878;2023-08-06T11:26:04;98511.78;;;28.34;42.70
26823;BME280;14852;51.910;8.878;2023-08-06T11:28:30;98509.09;;;28.34;42.36
26823;BME280;14852;51.910;8.878;2023-08-06T11:30:56;98501.59;;;28.43;42.07
26823;BME280;14852;51.910;8.878;2023-08-06T11:33:27;98506.16;;;28.54;42.32
26823;BME280;14852;51.910;8.878;2023-08-06T11:35:57;98504.34;;;28.66;41.95
26823;BME280;14852;51.910;8.878;2023-08-06T11:38:28;98508.00;;;28.72;41.43
26823;BME280;14852;51.910;8.878;2023-08-06T11:40:54;98507.84;;;28.67;41.11
26823;BME280;14852;51.910;8.878;2023-08-06T11:43:20;98504.94;;;28.68;41.01
26823;BME280;14852;51.910;8.878;2023-08-06T11:45:49;98502.13;;;28.63;41.14
26823;BME280;14852;51.910;8.878;2023-08-06T11:48:16;98495.44;;;28.72;41.21
26823;BME280;14852;51.910;8.878;2023-08-06T11:50:43;98498.97;;;28.85;40.64
26823;BME280;14852;51.910;8.878;2023-08-06T11:53:13;98490.53;;;28.99;39.97
26823;BME280;14852;51.910;8.878;2023-08-06T11:55:40;98484.84;;;28.96;39.83
26823;BME280;14852;51.910;8.878;2023-08-06T11:58:06;98482.50;;;28.99;39.26
26823;BME280;14852;51.910;8.878;2023-08-06T12:00:32;98478.72;;;29.18;39.54
26823;BME280;14852;51.910;8.878;2023-08-06T12:02:58;98472.78;;;29.28;39.28
26823;BME280;14852;51.910;8.878;2023-08-06T12:05:31;98463.50;;;29.42;39.59
26823;BME280;14852;51.910;8.878;2023-08-06T12:08:00;98465.94;;;29.56;38.71
26823;BME280;14852;51.910;8.878;2023-08-06T12:10:29;98462.00;;;29.70;38.49
26823;BME280;14852;51.910;8.878;2023-08-06T12:12:55;98469.63;;;29.89;38.47
26823;BME280;14852;51.910;8.878;2023-08-06T12:15:21;98467.78;;;29.90;38.19
26823;BME280;14852;51.910;8.878;2023-08-06T12:17:47;98468.97;;;29.82;38.18
26823;BME280;14852;51.910;8.878;2023-08-06T12:20:13;98466.88;;;29.73;38.33
26823;BME280;14852;51.910;8.878;2023-08-06T12:22:39;98461.53;;;29.49;39.53
26823;BME280;14852;51.910;8.878;2023-08-06T12:25:10;98466.84;;;29.26;39.78
26823;BME280;14852;51.910;8.878;2023-08-06T12:27:40;98467.50;;;28.98;40.54
26823;BME280;14852;51.910;8.878;2023-08-06T12:30:07;98466.38;;;28.76;40.05
26823;BME280;14852;51.910;8.878;2023-08-06T12:32:33;98466.00;;;28.61;40.61
26823;BME280;14852;51.910;8.878;2023-08-06T12:35:00;98466.84;;;28.43;40.65
26823;BME280;14852;51.910;8.878;2023-08-06T12:37:26;98467.13;;;28.23;40.94
26823;BME280;14852;51.910;8.878;2023-08-06T12:39:52;98476.00;;;27.99;41.26
26823;BME280;14852;51.910;8.878;2023-08-06T12:42:18;98481.09;;;27.82;41.81
26823;BME280;14852;51.910;8.878;2023-08-06T12:44:44;98485.09;;;27.73;42.25
26823;BME280;14852;51.910;8.878;2023-08-06T12:47:10;98490.53;;;27.66;41.84
26823;BME280;14852;51.910;8.878;2023-08-06T12:49:36;98484.88;;;27.56;42.14
26823;BME280;14852;51.910;8.878;2023-08-06T12:52:02;98483.03;;;27.50;42.02
26823;BME280;14852;51.910;8.878;2023-08-06T12:54:30;98484.69;;;27.51;42.56
26823;BME280;14852;51.910;8.878;2023-08-06T12:57:02;98482.44;;;27.48;41.93
26823;BME280;14852;51.910;8.878;2023-08-06T12:59:28;98474.50;;;27.42;41.90
26823;BME280;14852;51.910;8.878;2023-08-06T13:01:54;98478.03;;;27.35;42.03
26823;BME280;14852;51.910;8.878;2023-08-06T13:04:19;98475.16;;;27.37;42.27